createdAt,value
2023-05-24T00:00:44.540Z,99.90
2023-05-24T00:02:47.893Z,99.90
2023-05-24T00:04:52.806Z,99.90
2023-05-24T00:06:56.105Z,99.90
2023-05-24T00:08:58.900Z,99.90
2023-05-24T00:11:01.793Z,99.90
2023-05-24T00:13:05.042Z,99.90
2023-05-24T00:15:10.328Z,99.90
2023-05-24T00:17:14.020Z,99.90
2023-05-24T00:19:18.250Z,99.90
2023-05-24T00:21:21.288Z,99.90
2023-05-24T00:23:24.307Z,99.90
2023-05-24T00:25:27.138Z,99.90
2023-05-24T00:27:30.218Z,99.90
2023-05-24T00:29:33.205Z,99.90
2023-05-24T00:31:37.482Z,99.90
2023-05-24T00:33:40.466Z,99.90
2023-05-24T00:35:43.266Z,99.90
2023-05-24T00:37:46.439Z,99.90
2023-05-24T00:39:49.255Z,99.90
2023-05-24T00:41:52.024Z,99.90
2023-05-24T00:43:55.066Z,99.90
2023-05-24T00:46:17.216Z,99.90
2023-05-24T00:48:22.669Z,99.90
2023-05-24T00:50:26.720Z,99.90
2023-05-24T00:52:29.774Z,99.90
2023-05-24T00:54:32.864Z,99.90
2023-05-24T00:56:37.709Z,99.90
2023-05-24T00:58:41.008Z,99.90
2023-05-24T01:00:45.224Z,99.90
2023-05-24T01:02:49.774Z,99.90
2023-05-24T01:04:56.072Z,99.90
2023-05-24T01:07:10.858Z,99.90
2023-05-24T01:09:22.916Z,99.90
2023-05-24T01:11:36.403Z,99.90
2023-05-24T01:13:47.741Z,99.90
2023-05-24T01:15:56.987Z,99.90
2023-05-24T01:18:07.943Z,99.90
2023-05-24T01:20:14.133Z,99.90
2023-05-24T01:22:27.964Z,99.90
2023-05-24T01:24:38.733Z,99.90
2023-05-24T01:26:49.292Z,99.90
2023-05-24T01:28:55.129Z,99.90
2023-05-24T01:30:58.534Z,99.90
2023-05-24T01:33:01.529Z,99.90
2023-05-24T01:35:04.707Z,99.90
2023-05-24T01:37:07.501Z,99.90
2023-05-24T01:39:11.120Z,99.90
2023-05-24T01:41:24.439Z,99.90
2023-05-24T01:43:33.810Z,99.90
2023-05-24T01:45:49.395Z,99.90
2023-05-24T01:48:08.439Z,99.90
2023-05-24T01:50:18.305Z,99.90
2023-05-24T01:52:23.619Z,99.90
2023-05-24T01:54:29.483Z,99.90
2023-05-24T01:56:33.023Z,99.90
2023-05-24T01:58:38.496Z,99.90
2023-05-24T02:00:43.597Z,99.90
2023-05-24T02:02:46.895Z,99.90
2023-05-24T02:04:50.503Z,99.90
2023-05-24T02:06:53.403Z,99.90
2023-05-24T02:08:56.310Z,99.90
2023-05-24T02:10:59.197Z,99.90
2023-05-24T02:13:02.005Z,99.90
2023-05-24T02:15:06.430Z,99.90
2023-05-24T02:17:10.694Z,99.90
2023-05-24T02:19:13.713Z,99.90
2023-05-24T02:21:16.702Z,99.90
2023-05-24T02:23:19.523Z,99.90
2023-05-24T02:25:22.544Z,99.90
2023-05-24T02:27:25.455Z,99.90
2023-05-24T02:29:28.456Z,99.90
2023-05-24T02:31:34.123Z,99.90
2023-05-24T02:33:38.549Z,99.90
2023-05-24T02:35:42.332Z,99.90
2023-05-24T02:37:45.320Z,99.90
2023-05-24T02:39:48.282Z,99.90
2023-05-24T02:41:51.093Z,99.90
2023-05-24T02:43:54.349Z,99.90
2023-05-24T02:45:57.186Z,99.90
2023-05-24T02:48:00.824Z,99.90
2023-05-24T02:50:05.775Z,99.90
2023-05-24T02:52:08.608Z,99.90
2023-05-24T02:54:11.453Z,99.90
2023-05-24T02:56:17.350Z,99.90
2023-05-24T02:58:20.224Z,99.90
2023-05-24T03:00:23.419Z,99.90
2023-05-24T03:02:28.667Z,99.90
2023-05-24T03:04:31.574Z,99.90
2023-05-24T03:06:36.065Z,99.90
2023-05-24T03:08:39.261Z,99.90
2023-05-24T03:10:42.325Z,99.90
2023-05-24T03:12:45.303Z,99.90
2023-05-24T03:14:48.164Z,99.90
2023-05-24T03:16:51.580Z,99.90
2023-05-24T03:18:55.353Z,99.90
2023-05-24T03:20:58.524Z,99.90
2023-05-24T03:23:02.675Z,99.90
2023-05-24T03:25:08.663Z,99.90
2023-05-24T03:27:11.551Z,99.90
2023-05-24T03:29:14.688Z,99.90
2023-05-24T03:31:20.833Z,99.90
2023-05-24T03:33:24.034Z,99.90
2023-05-24T03:35:27.142Z,99.90
2023-05-24T03:37:30.218Z,99.90
2023-05-24T03:39:34.556Z,99.90
2023-05-24T03:41:37.563Z,99.90
2023-05-24T03:43:40.440Z,99.90
2023-05-24T03:45:43.627Z,99.90
2023-05-24T03:47:46.698Z,99.90
2023-05-24T03:49:49.579Z,99.90
2023-05-24T03:51:52.653Z,99.90
2023-05-24T03:53:55.659Z,99.90
2023-05-24T03:55:59.868Z,99.90
2023-05-24T03:58:03.186Z,99.90
2023-05-24T04:00:07.379Z,99.90
2023-05-24T04:02:10.667Z,99.90
2023-05-24T04:04:13.633Z,99.90
2023-05-24T04:06:17.654Z,99.90
2023-05-24T04:08:20.661Z,99.90
2023-05-24T04:10:23.759Z,99.90
2023-05-24T04:12:28.087Z,99.90
2023-05-24T04:14:33.868Z,99.90
2023-05-24T04:16:40.306Z,99.90
2023-05-24T04:18:43.308Z,99.90
2023-05-24T04:20:46.421Z,99.90
2023-05-24T04:22:48.492Z,99.90
2023-05-24T04:24:53.952Z,99.90
2023-05-24T04:26:58.241Z,99.90
2023-05-24T04:29:03.743Z,99.90
2023-05-24T04:31:07.167Z,99.90
2023-05-24T04:33:12.338Z,99.90
2023-05-24T04:35:15.566Z,99.90
2023-05-24T04:37:18.652Z,99.90
2023-05-24T04:39:21.615Z,99.90
2023-05-24T04:41:24.474Z,99.90
2023-05-24T04:43:27.490Z,99.90
2023-05-24T04:45:33.043Z,99.90
2023-05-24T04:47:36.126Z,99.90
2023-05-24T04:49:39.555Z,99.90
2023-05-24T04:51:42.488Z,99.90
2023-05-24T04:53:45.446Z,99.90
2023-05-24T04:55:48.845Z,99.90
2023-05-24T04:57:51.787Z,99.90
2023-05-24T04:59:54.633Z,99.90
2023-05-24T05:01:59.003Z,99.90
2023-05-24T05:04:04.465Z,99.90
2023-05-24T05:06:08.076Z,99.90
2023-05-24T05:08:11.111Z,99.90
2023-05-24T05:10:14.270Z,99.90
2023-05-24T05:12:19.086Z,99.90
2023-05-24T05:14:26.882Z,99.90
2023-05-24T05:16:30.730Z,99.90
2023-05-24T05:18:35.386Z,99.90
2023-05-24T05:20:38.504Z,99.90
2023-05-24T05:22:48.551Z,99.90
2023-05-24T05:24:51.753Z,99.90
2023-05-24T05:26:54.880Z,99.90
2023-05-24T05:28:59.392Z,99.90
2023-05-24T05:31:04.661Z,99.90
2023-05-24T05:33:07.662Z,99.90
2023-05-24T05:35:12.332Z,99.90
2023-05-24T05:37:17.588Z,99.90
2023-05-24T05:39:20.686Z,99.90
2023-05-24T05:41:24.085Z,99.90
2023-05-24T05:43:27.245Z,99.90
2023-05-24T05:45:32.107Z,99.90
2023-05-24T05:47:35.652Z,99.90
2023-05-24T05:49:40.833Z,99.90
2023-05-24T05:51:45.978Z,99.90
2023-05-24T05:53:59.800Z,99.90
2023-05-24T05:56:03.194Z,99.90
2023-05-24T05:58:06.475Z,99.90
2023-05-24T06:00:10.799Z,99.90
2023-05-24T06:02:14.082Z,99.90
2023-05-24T06:04:20.094Z,99.90
2023-05-24T06:06:23.289Z,99.90
2023-05-24T06:08:30.279Z,99.90
2023-05-24T06:10:34.663Z,99.90
2023-05-24T06:12:38.029Z,99.90
2023-05-24T06:14:41.333Z,99.90
2023-05-24T06:16:45.947Z,99.90
2023-05-24T06:19:01.426Z,99.90
2023-05-24T06:21:10.661Z,99.90
2023-05-24T06:23:14.392Z,99.90
2023-05-24T06:25:20.866Z,99.90
2023-05-24T06:27:24.085Z,99.90
2023-05-24T06:29:27.283Z,99.90
2023-05-24T06:31:30.482Z,99.90
2023-05-24T06:33:37.627Z,99.90
2023-05-24T06:35:43.121Z,99.90
2023-05-24T06:37:51.424Z,99.90
2023-05-24T06:39:54.576Z,99.90
2023-05-24T06:41:59.396Z,99.90
2023-05-24T06:44:02.572Z,99.90
2023-05-24T06:46:05.576Z,99.90
2023-05-24T06:48:08.971Z,99.90
2023-05-24T06:50:12.466Z,99.90
2023-05-24T06:52:15.716Z,99.90
2023-05-24T06:54:19.218Z,99.90
2023-05-24T06:56:25.323Z,99.90
2023-05-24T06:58:29.854Z,99.90
2023-05-24T07:00:32.997Z,99.90
2023-05-24T07:02:38.803Z,99.90
2023-05-24T07:04:42.546Z,99.90
2023-05-24T07:06:45.917Z,99.90
2023-05-24T07:08:49.004Z,99.90
2023-05-24T07:10:55.538Z,99.90
2023-05-24T07:12:58.696Z,99.90
2023-05-24T07:15:03.550Z,99.90
2023-05-24T07:17:06.856Z,99.90
2023-05-24T07:19:10.025Z,99.90
2023-05-24T07:21:13.173Z,99.90
2023-05-24T07:23:16.327Z,99.90
2023-05-24T07:25:21.471Z,99.90
2023-05-24T07:27:24.724Z,99.90
2023-05-24T07:29:27.662Z,99.90
2023-05-24T07:31:34.784Z,99.90
2023-05-24T07:33:38.394Z,99.90
2023-05-24T07:35:43.347Z,99.90
2023-05-24T07:37:46.694Z,99.90
2023-05-24T07:39:49.753Z,99.90
2023-05-24T07:41:53.144Z,99.90
2023-05-24T07:43:56.275Z,99.90
2023-05-24T07:46:03.393Z,99.90
2023-05-24T07:48:10.534Z,99.90
2023-05-24T07:50:13.705Z,99.90
2023-05-24T07:52:16.896Z,99.90
2023-05-24T07:54:20.092Z,99.90
2023-05-24T07:56:23.849Z,99.90
2023-05-24T07:58:27.573Z,99.90
2023-05-24T08:00:30.843Z,99.90
2023-05-24T08:02:34.871Z,99.90
2023-05-24T08:04:40.139Z,99.90
2023-05-24T08:06:43.279Z,99.90
2023-05-24T08:08:47.746Z,99.90
2023-05-24T08:10:50.950Z,99.90
2023-05-24T08:12:58.982Z,99.90
2023-05-24T08:15:05.568Z,99.90
2023-05-24T08:17:08.806Z,99.90
2023-05-24T08:19:13.773Z,99.90
2023-05-24T08:21:20.612Z,99.90
2023-05-24T08:23:26.198Z,99.90
2023-05-24T08:25:33.107Z,99.90
2023-05-24T08:27:36.386Z,99.90
2023-05-24T08:29:41.008Z,99.90
2023-05-24T08:31:44.401Z,99.90
2023-05-24T08:33:50.368Z,99.90
2023-05-24T08:35:53.563Z,99.90
2023-05-24T08:37:58.013Z,99.90
2023-05-24T08:40:04.230Z,99.90
2023-05-24T08:42:10.214Z,99.90
2023-05-24T08:44:14.765Z,99.90
2023-05-24T08:46:19.240Z,99.90
2023-05-24T08:48:23.060Z,99.90
2023-05-24T08:50:27.715Z,99.90
2023-05-24T08:52:33.220Z,99.90
2023-05-24T08:54:38.637Z,99.90
2023-05-24T08:56:42.184Z,99.90
2023-05-24T08:58:47.169Z,99.90
2023-05-24T09:00:50.519Z,99.90
2023-05-24T09:02:54.615Z,99.90
2023-05-24T09:05:09.852Z,99.90
2023-05-24T09:07:14.905Z,99.90
2023-05-24T09:09:19.987Z,99.90
2023-05-24T09:11:26.935Z,99.90
2023-05-24T09:13:31.834Z,99.20
2023-05-24T09:15:35.156Z,98.80
2023-05-24T09:17:40.586Z,98.20
2023-05-24T09:19:46.471Z,98.30
2023-05-24T09:21:50.879Z,97.70
2023-05-24T09:23:54.520Z,97.30
2023-05-24T09:25:58.131Z,97.00
2023-05-24T09:28:07.979Z,97.00
2023-05-24T09:30:13.055Z,96.80
2023-05-24T09:32:16.844Z,96.00
2023-05-24T09:34:20.160Z,95.20
2023-05-24T09:36:23.429Z,96.00
2023-05-24T09:38:30.207Z,96.60
2023-05-24T09:40:34.192Z,96.60
2023-05-24T09:42:38.164Z,96.80
2023-05-24T09:44:46.029Z,97.40
2023-05-24T09:46:49.559Z,97.70
2023-05-24T09:48:59.963Z,97.30
2023-05-24T09:51:09.541Z,97.20
2023-05-24T09:53:13.155Z,97.60
2023-05-24T09:55:17.699Z,97.60
2023-05-24T09:57:23.073Z,96.50
2023-05-24T09:59:26.429Z,96.30
2023-05-24T10:01:34.989Z,95.60
2023-05-24T10:03:43.409Z,95.50
2023-05-24T10:05:48.451Z,96.40
2023-05-24T10:07:53.390Z,95.60
2023-05-24T10:09:57.803Z,95.60
2023-05-24T10:12:04.134Z,95.50
2023-05-24T10:14:08.333Z,94.70
2023-05-24T10:16:12.095Z,94.20
2023-05-24T10:18:16.973Z,93.40
2023-05-24T10:20:23.364Z,93.20
2023-05-24T10:22:30.712Z,93.10
2023-05-24T10:24:37.234Z,93.10
2023-05-24T10:26:42.600Z,92.50
2023-05-24T10:28:50.084Z,92.60
2023-05-24T10:31:03.564Z,93.10
2023-05-24T10:33:09.517Z,92.30
2023-05-24T10:35:15.251Z,92.10
2023-05-24T10:37:19.300Z,91.80
2023-05-24T10:39:23.739Z,91.70
2023-05-24T10:41:28.297Z,91.80
2023-05-24T10:43:34.283Z,91.90
2023-05-24T10:45:42.261Z,91.80
2023-05-24T10:47:48.513Z,91.90
2023-05-24T10:49:53.184Z,91.90
2023-05-24T10:52:08.303Z,92.10
2023-05-24T10:54:16.911Z,93.30
2023-05-24T10:56:23.867Z,93.40
2023-05-24T10:58:44.884Z,94.00
2023-05-24T11:00:49.076Z,94.20
2023-05-24T11:02:55.210Z,94.20
2023-05-24T11:05:00.355Z,94.60
2023-05-24T11:07:09.541Z,94.90
2023-05-24T11:09:12.772Z,95.00
2023-05-24T11:11:24.320Z,94.90
2023-05-24T11:13:29.146Z,94.60
2023-05-24T11:15:34.937Z,94.60
2023-05-24T11:18:17.125Z,94.00
2023-05-24T11:20:21.663Z,93.10
2023-05-24T11:22:27.063Z,93.40
2023-05-24T11:24:30.376Z,93.80
2023-05-24T11:26:33.910Z,94.10
2023-05-24T11:28:39.116Z,93.20
2023-05-24T11:30:43.058Z,93.00
2023-05-24T11:32:49.963Z,92.80
2023-05-24T11:34:53.468Z,92.90
2023-05-24T11:36:56.736Z,93.00
2023-05-24T11:39:01.906Z,92.80
2023-05-24T11:41:05.371Z,92.60
2023-05-24T11:43:08.563Z,92.80
2023-05-24T11:45:13.915Z,92.80
2023-05-24T11:47:17.043Z,93.30
2023-05-24T11:49:20.845Z,92.70
2023-05-24T11:51:28.028Z,92.20
2023-05-24T11:53:31.259Z,92.30
2023-05-24T11:55:36.668Z,92.10
2023-05-24T11:57:42.612Z,91.70
2023-05-24T11:59:45.911Z,91.30
2023-05-24T12:01:52.766Z,90.80
2023-05-24T12:04:00.487Z,91.10
2023-05-24T12:06:04.002Z,88.90
2023-05-24T12:08:12.339Z,90.60
2023-05-24T12:10:16.325Z,90.60
2023-05-24T12:12:27.103Z,90.60
2023-05-24T12:14:39.861Z,91.00
2023-05-24T12:16:44.205Z,90.90
2023-05-24T12:19:02.172Z,91.30
2023-05-24T12:21:13.051Z,91.70
2023-05-24T12:23:17.779Z,92.20
2023-05-24T12:25:21.945Z,92.60
2023-05-24T12:27:30.966Z,92.80
2023-05-24T12:29:35.597Z,92.50
2023-05-24T12:31:39.842Z,92.30
2023-05-24T12:33:43.751Z,92.20
2023-05-24T12:35:53.492Z,91.70
2023-05-24T12:38:01.068Z,90.90
2023-05-24T12:45:38.024Z,90.20
2023-05-24T12:47:43.321Z,89.20
2023-05-24T12:49:55.434Z,89.10
2023-05-24T12:52:02.898Z,89.90
2023-05-24T12:54:06.219Z,89.80
2023-05-24T12:56:10.060Z,89.40
2023-05-24T12:58:17.574Z,89.90
2023-05-24T13:00:27.085Z,88.70
2023-05-24T13:02:30.558Z,87.90
2023-05-24T13:04:37.000Z,89.20
2023-05-24T13:06:40.433Z,89.50
2023-05-24T13:08:49.515Z,90.10
2023-05-24T13:10:56.594Z,90.00
2023-05-24T13:13:02.378Z,88.80
2023-05-24T13:15:06.307Z,89.40
2023-05-24T13:17:09.920Z,86.80
2023-05-24T13:19:13.145Z,87.00
2023-05-24T13:21:17.621Z,87.70
2023-05-24T13:23:24.768Z,87.80
2023-05-24T13:25:27.938Z,89.30
2023-05-24T13:27:31.361Z,90.40
2023-05-24T13:29:45.452Z,89.20
2023-05-24T13:31:53.859Z,88.60
2023-05-24T13:33:57.010Z,87.40
2023-05-24T13:36:03.332Z,88.30
2023-05-24T13:38:11.292Z,88.20
2023-05-24T13:40:14.589Z,87.40
2023-05-24T13:42:19.080Z,86.60
2023-05-24T13:44:22.605Z,85.60
2023-05-24T13:46:26.166Z,83.90
2023-05-24T13:48:29.532Z,84.00
2023-05-24T13:50:32.890Z,82.10
2023-05-24T13:52:36.915Z,84.10
2023-05-24T13:54:41.355Z,83.80
2023-05-24T13:56:44.913Z,84.70
2023-05-24T13:58:48.098Z,84.20
2023-05-24T14:00:51.335Z,84.90
2023-05-24T14:02:54.508Z,83.20
2023-05-24T14:05:08.622Z,82.90
2023-05-24T14:07:20.889Z,83.00
2023-05-24T14:09:26.007Z,83.90
2023-05-24T14:11:31.678Z,83.30
2023-05-24T14:15:40.877Z,81.40
2023-05-24T14:17:44.025Z,80.60
2023-05-24T14:19:47.006Z,82.40
2023-05-24T14:21:49.941Z,79.70
2023-05-24T14:23:53.022Z,80.50
2023-05-24T14:25:56.772Z,78.50
2023-05-24T14:28:01.447Z,80.80
2023-05-24T14:30:05.038Z,80.00
2023-05-24T14:32:08.437Z,80.50
2023-05-24T14:34:13.106Z,80.00
2023-05-24T14:36:16.025Z,81.50
2023-05-24T14:38:19.121Z,83.00
2023-05-24T14:40:22.143Z,82.30
2023-05-24T14:42:25.112Z,83.90
2023-05-24T14:44:29.499Z,83.20
2023-05-24T14:46:35.947Z,83.20
2023-05-24T14:48:41.401Z,82.80
2023-05-24T14:50:44.692Z,81.70
2023-05-24T14:52:47.652Z,78.20
2023-05-24T14:54:50.682Z,77.80
2023-05-24T14:56:53.922Z,77.10
2023-05-24T14:58:57.450Z,76.40
2023-05-24T15:01:01.862Z,76.50
2023-05-24T15:03:06.122Z,74.80
2023-05-24T15:05:09.733Z,75.20
2023-05-24T15:07:12.893Z,76.30
2023-05-24T15:09:16.402Z,76.10
2023-05-24T15:11:19.410Z,78.50
2023-05-24T15:13:23.143Z,77.50
2023-05-24T15:15:26.151Z,77.30
2023-05-24T15:17:30.634Z,77.80
2023-05-24T15:19:33.718Z,76.20
2023-05-24T15:21:38.182Z,77.40
2023-05-24T15:23:41.643Z,78.40
2023-05-24T15:25:46.109Z,78.00
2023-05-24T15:27:49.351Z,77.60
2023-05-24T15:29:54.539Z,76.00
2023-05-24T15:31:58.571Z,73.50
2023-05-24T15:34:04.806Z,73.60
2023-05-24T15:36:08.441Z,73.70
2023-05-24T15:38:11.432Z,73.90
2023-05-24T15:40:15.147Z,74.00
2023-05-24T15:42:18.164Z,73.40
2023-05-24T15:44:21.409Z,71.50
2023-05-24T15:46:24.580Z,69.70
2023-05-24T15:48:27.577Z,68.50
2023-05-24T15:50:51.951Z,67.90
2023-05-24T15:52:56.324Z,68.30
2023-05-24T15:54:59.398Z,68.80
2023-05-24T15:57:02.891Z,67.10
2023-05-24T15:59:06.164Z,69.40
2023-05-24T16:01:41.999Z,68.70
2023-05-24T16:04:13.624Z,70.20
2023-05-24T16:06:27.511Z,69.80
2023-05-24T16:08:39.090Z,69.20
2023-05-24T16:11:34.425Z,69.00
2023-05-24T16:13:52.444Z,68.00
2023-05-24T16:15:59.889Z,66.50
2023-05-24T16:18:08.445Z,66.80
2023-05-24T16:20:16.728Z,67.20
2023-05-24T16:22:40.712Z,67.50
2023-05-24T16:24:50.057Z,69.00
2023-05-24T16:27:15.530Z,71.10
2023-05-24T16:31:41.128Z,76.20
2023-05-24T16:33:44.043Z,77.40
2023-05-24T16:35:48.363Z,78.10
2023-05-24T16:37:55.912Z,78.40
2023-05-24T16:39:58.919Z,78.70
2023-05-24T16:42:03.788Z,79.30
2023-05-24T16:44:07.206Z,77.90
2023-05-24T16:46:11.027Z,76.60
2023-05-24T16:48:14.927Z,75.60
2023-05-24T16:50:26.538Z,74.70
2023-05-24T16:52:29.874Z,73.50
2023-05-24T16:54:39.388Z,71.80
2023-05-24T16:56:50.564Z,70.90
2023-05-24T16:59:02.638Z,71.20
2023-05-24T17:01:10.280Z,73.30
2023-05-24T17:03:16.302Z,75.50
2023-05-24T17:05:19.314Z,75.90
2023-05-24T17:07:22.359Z,77.80
2023-05-24T17:09:25.506Z,80.50
2023-05-24T17:11:30.044Z,81.30
2023-05-24T17:13:33.706Z,83.00
2023-05-24T17:15:37.063Z,84.60
2023-05-24T17:17:40.110Z,85.80
2023-05-24T17:19:43.351Z,87.40
2023-05-24T17:21:46.793Z,87.80
2023-05-24T17:23:49.949Z,89.00
2023-05-24T17:25:53.151Z,89.60
2023-05-24T17:27:57.559Z,90.00
2023-05-24T17:30:00.688Z,90.10
2023-05-24T17:32:03.852Z,90.40
2023-05-24T17:34:06.965Z,90.50
2023-05-24T17:36:09.991Z,91.20
2023-05-24T17:38:13.079Z,91.00
2023-05-24T17:40:16.488Z,91.20
2023-05-24T17:42:19.520Z,91.90
2023-05-24T17:44:23.846Z,92.20
2023-05-24T17:46:27.259Z,92.40
2023-05-24T17:48:31.882Z,92.60
2023-05-24T17:50:37.569Z,93.10
2023-05-24T17:52:40.615Z,93.50
2023-05-24T17:54:43.631Z,94.10
2023-05-24T17:56:46.616Z,94.10
2023-05-24T17:58:50.138Z,94.20
2023-05-24T18:00:54.670Z,94.40
2023-05-24T18:02:57.805Z,94.80
2023-05-24T18:05:01.027Z,94.80
2023-05-24T18:07:04.243Z,94.90
2023-05-24T18:09:07.226Z,95.10
2023-05-24T18:11:12.829Z,95.30
2023-05-24T18:13:15.910Z,95.40
2023-05-24T18:15:18.936Z,95.60
2023-05-24T18:17:23.544Z,95.50
2023-05-24T18:19:27.341Z,95.90
2023-05-24T18:21:30.467Z,95.90
2023-05-24T18:23:37.353Z,96.00
2023-05-24T18:25:40.619Z,96.30
2023-05-24T18:27:43.757Z,96.50
2023-05-24T18:29:46.861Z,96.60
2023-05-24T18:31:49.983Z,97.10
2023-05-24T18:33:54.437Z,97.20
2023-05-24T18:35:57.558Z,97.30
2023-05-24T18:38:00.592Z,97.30
2023-05-24T18:40:03.920Z,97.40
2023-05-24T18:42:08.977Z,97.70
2023-05-24T18:44:12.108Z,97.60
2023-05-24T18:46:16.432Z,97.80
2023-05-24T18:48:19.461Z,97.90
2023-05-24T18:50:23.946Z,97.90
2023-05-24T18:52:27.127Z,98.00
2023-05-24T18:54:30.185Z,98.00
2023-05-24T18:56:33.279Z,97.90
2023-05-24T18:58:36.361Z,98.00
2023-05-24T19:00:41.683Z,98.70
2023-05-24T19:02:44.870Z,98.60
2023-05-24T19:04:49.124Z,98.90
2023-05-24T19:06:55.664Z,98.90
2023-05-24T19:09:00.159Z,99.40
2023-05-24T19:11:04.178Z,99.40
2023-05-24T19:13:09.796Z,99.70
2023-05-24T19:15:14.993Z,99.90
2023-05-24T19:17:20.799Z,99.90
2023-05-24T19:19:25.776Z,99.90
2023-05-24T19:21:31.327Z,99.90
2023-05-24T19:23:36.290Z,99.90
2023-05-24T19:25:42.251Z,99.90
2023-05-24T19:27:59.424Z,99.90
2023-05-24T19:30:05.256Z,99.90
2023-05-24T19:32:11.739Z,99.90
2023-05-24T19:34:15.216Z,99.90
2023-05-24T19:36:20.013Z,99.90
2023-05-24T19:38:23.097Z,99.90
2023-05-24T19:40:27.634Z,99.90
2023-05-24T19:42:30.745Z,99.90
2023-05-24T19:44:35.018Z,99.90
2023-05-24T19:49:56.365Z,99.90
2023-05-24T19:52:20.093Z,99.90
2023-05-24T19:54:25.708Z,99.90
2023-05-24T19:56:37.443Z,99.90
2023-05-24T20:01:31.308Z,99.90
2023-05-24T20:03:57.247Z,99.90
2023-05-24T20:06:02.409Z,99.90
2023-05-24T20:08:52.976Z,99.90
2023-05-24T20:11:37.061Z,99.90
2023-05-24T20:14:29.511Z,99.90
2023-05-24T20:24:58.179Z,99.90
2023-05-24T20:27:39.219Z,99.90
2023-05-24T20:40:27.888Z,99.90
2023-05-24T20:46:29.147Z,99.90
2023-05-24T20:51:27.266Z,99.90
2023-05-24T20:54:22.949Z,99.90
2023-05-24T20:57:03.149Z,99.90
2023-05-24T20:59:50.562Z,99.90
2023-05-24T21:04:17.656Z,99.90
2023-05-24T21:06:21.585Z,99.90
2023-05-24T21:08:26.235Z,99.90
2023-05-24T21:10:29.569Z,99.90
2023-05-24T21:12:37.026Z,99.90
2023-05-24T21:14:40.150Z,99.90
2023-05-24T21:16:43.330Z,99.90
2023-05-24T21:18:48.854Z,99.90
2023-05-24T21:20:51.961Z,99.90
2023-05-24T21:22:55.170Z,99.90
2023-05-24T21:24:58.313Z,99.90
2023-05-24T21:27:01.361Z,99.90
2023-05-24T21:29:05.869Z,99.90
2023-05-24T21:31:08.989Z,99.90
2023-05-24T21:33:12.345Z,99.90
2023-05-24T21:35:15.644Z,99.90
2023-05-24T21:37:18.921Z,99.90
2023-05-24T21:39:22.033Z,99.90
2023-05-24T21:41:26.853Z,99.90
2023-05-24T21:43:30.164Z,99.90
2023-05-24T21:45:34.814Z,99.90
2023-05-24T21:47:38.059Z,99.90
2023-05-24T21:49:41.463Z,99.90
2023-05-24T21:51:44.546Z,99.90
2023-05-24T21:53:47.712Z,99.90
2023-05-24T21:55:51.694Z,99.90
2023-05-24T21:57:54.862Z,99.90
2023-05-24T21:59:58.102Z,99.90
2023-05-24T22:02:02.765Z,99.90
2023-05-24T22:04:10.227Z,99.90
2023-05-24T22:06:13.399Z,99.90
2023-05-24T22:08:17.186Z,99.90
2023-05-24T22:10:20.774Z,99.90
2023-05-24T22:12:25.814Z,99.90
2023-05-24T22:14:29.972Z,99.90
2023-05-24T22:16:33.308Z,99.90
2023-05-24T22:18:37.893Z,99.90
2023-05-24T22:20:41.204Z,99.90
2023-05-24T22:22:48.357Z,99.90
2023-05-24T22:24:54.494Z,99.90
2023-05-24T22:27:00.709Z,99.90
2023-05-24T22:29:12.109Z,99.90
2023-05-24T22:31:15.817Z,99.90
2023-05-24T22:33:19.072Z,99.90
2023-05-24T22:35:25.597Z,99.90
2023-05-24T22:37:28.981Z,99.90
2023-05-24T22:39:32.098Z,99.90
2023-05-24T22:41:35.425Z,99.90
2023-05-24T22:43:38.518Z,99.90
2023-05-24T22:45:41.796Z,99.90
2023-05-24T22:47:49.240Z,99.90
2023-05-24T22:49:55.044Z,99.90
2023-05-24T22:52:00.382Z,99.90
2023-05-24T22:54:03.424Z,99.90
2023-05-24T22:56:07.799Z,99.90
2023-05-24T22:58:11.165Z,99.90
2023-05-24T23:00:15.514Z,99.90
2023-05-24T23:02:18.631Z,99.90
2023-05-24T23:04:27.668Z,99.90
2023-05-24T23:06:31.884Z,99.90
2023-05-24T23:08:37.510Z,99.90
2023-05-24T23:10:45.748Z,99.90
2023-05-24T23:12:48.873Z,99.90
2023-05-24T23:14:51.932Z,99.90
2023-05-24T23:16:55.296Z,99.90
2023-05-24T23:18:58.588Z,99.90
2023-05-24T23:21:02.950Z,99.90
2023-05-24T23:23:07.201Z,99.90
2023-05-24T23:25:12.070Z,99.90
2023-05-24T23:27:15.239Z,99.90
2023-05-24T23:29:18.444Z,99.90
2023-05-24T23:31:21.547Z,99.90
2023-05-24T23:33:24.477Z,99.90
2023-05-24T23:35:27.414Z,99.90
2023-05-24T23:37:30.578Z,99.90
2023-05-24T23:39:33.974Z,99.90
2023-05-24T23:41:41.033Z,99.90
2023-05-24T23:43:44.236Z,99.90
2023-05-24T23:45:47.324Z,99.90
2023-05-24T23:47:53.131Z,99.90
2023-05-24T23:49:55.984Z,99.90
2023-05-24T23:51:58.942Z,99.90
2023-05-24T23:54:02.555Z,99.90
2023-05-24T23:56:06.023Z,99.90
2023-05-24T23:58:10.306Z,99.90
